sensor_id;sensor_type;location;lat;lon;timestamp;P1;durP1;ratioP1;P2;durP2;ratioP2
48487;SDS011;34289;48.572;13.378;2023-02-13T00:00:35;148.27;;;45.42;;
48487;SDS011;34289;48.572;13.378;2023-02-13T00:03:01;147.88;;;45.45;;
48487;SDS011;34289;48.572;13.378;2023-02-13T00:05:27;131.48;;;39.75;;
48487;SDS011;34289;48.572;13.378;2023-02-13T00:07:53;138.75;;;39.80;;
48487;SDS011;34289;48.572;13.378;2023-02-13T00:10:19;121.90;;;37.88;;
48487;SDS011;34289;48.572;13.378;2023-02-13T00:12:44;129.95;;;40.45;;
48487;SDS011;34289;48.572;13.378;2023-02-13T00:15:10;113.95;;;39.80;;
48487;SDS011;34289;48.572;13.378;2023-02-13T00:17:35;124.55;;;40.22;;
48487;SDS011;34289;48.572;13.378;2023-02-13T00:20:01;143.02;;;43.28;;
48487;SDS011;34289;48.572;13.378;2023-02-13T00:22:27;153.73;;;45.55;;
48487;SDS011;34289;48.572;13.378;2023-02-13T00:24:52;140.35;;;43.30;;
48487;SDS011;34289;48.572;13.378;2023-02-13T00:27:18;121.50;;;38.15;;
48487;SDS011;34289;48.572;13.378;2023-02-13T00:29:44;130.13;;;40.85;;
48487;SDS011;34289;48.572;13.378;2023-02-13T00:32:09;135.20;;;41.85;;
48487;SDS011;34289;48.572;13.378;2023-02-13T00:34:35;147.60;;;44.55;;
48487;SDS011;34289;48.572;13.378;2023-02-13T00:37:01;130.20;;;35.75;;
48487;SDS011;34289;48.572;13.378;2023-02-13T00:39:26;137.10;;;41.97;;
48487;SDS011;34289;48.572;13.378;2023-02-13T00:41:52;126.65;;;40.88;;
48487;SDS011;34289;48.572;13.378;2023-02-13T00:44:17;105.85;;;37.33;;
48487;SDS011;34289;48.572;13.378;2023-02-13T00:46:43;109.05;;;36.67;;
48487;SDS011;34289;48.572;13.378;2023-02-13T00:49:09;115.47;;;39.00;;
48487;SDS011;34289;48.572;13.378;2023-02-13T00:51:34;116.18;;;38.40;;
48487;SDS011;34289;48.572;13.378;2023-02-13T00:54:00;100.32;;;36.58;;
48487;SDS011;34289;48.572;13.378;2023-02-13T00:56:26;105.80;;;36.80;;
48487;SDS011;34289;48.572;13.378;2023-02-13T00:58:51;101.22;;;37.10;;
48487;SDS011;34289;48.572;13.378;2023-02-13T01:01:17;105.88;;;37.65;;
48487;SDS011;34289;48.572;13.378;2023-02-13T01:03:43;108.18;;;36.95;;
48487;SDS011;34289;48.572;13.378;2023-02-13T01:06:08;105.80;;;39.10;;
48487;SDS011;34289;48.572;13.378;2023-02-13T01:08:37;102.50;;;37.00;;
48487;SDS011;34289;48.572;13.378;2023-02-13T01:11:03;103.57;;;36.83;;
48487;SDS011;34289;48.572;13.378;2023-02-13T01:13:29;106.53;;;38.33;;
48487;SDS011;34289;48.572;13.378;2023-02-13T01:15:54;103.10;;;35.50;;
48487;SDS011;34289;48.572;13.378;2023-02-13T01:18:20;101.55;;;38.70;;
48487;SDS011;34289;48.572;13.378;2023-02-13T01:20:54;105.82;;;37.13;;
48487;SDS011;34289;48.572;13.378;2023-02-13T01:23:21;96.55;;;35.92;;
48487;SDS011;34289;48.572;13.378;2023-02-13T01:25:47;96.60;;;34.40;;
48487;SDS011;34289;48.572;13.378;2023-02-13T01:28:15;100.10;;;36.03;;
48487;SDS011;34289;48.572;13.378;2023-02-13T01:30:41;87.30;;;33.05;;
48487;SDS011;34289;48.572;13.378;2023-02-13T01:33:09;90.85;;;33.88;;
48487;SDS011;34289;48.572;13.378;2023-02-13T01:35:37;89.10;;;36.38;;
48487;SDS011;34289;48.572;13.378;2023-02-13T01:38:03;97.85;;;33.88;;
48487;SDS011;34289;48.572;13.378;2023-02-13T01:40:29;98.40;;;37.58;;
48487;SDS011;34289;48.572;13.378;2023-02-13T01:42:55;89.70;;;34.70;;
48487;SDS011;34289;48.572;13.378;2023-02-13T01:45:25;95.72;;;36.78;;
48487;SDS011;34289;48.572;13.378;2023-02-13T01:47:54;97.20;;;36.63;;
48487;SDS011;34289;48.572;13.378;2023-02-13T01:51:11;86.82;;;34.75;;
48487;SDS011;34289;48.572;13.378;2023-02-13T01:56:08;93.70;;;36.42;;
48487;SDS011;34289;48.572;13.378;2023-02-13T01:58:38;85.57;;;36.75;;
48487;SDS011;34289;48.572;13.378;2023-02-13T02:01:07;85.20;;;34.55;;
48487;SDS011;34289;48.572;13.378;2023-02-13T02:03:37;87.65;;;35.35;;
48487;SDS011;34289;48.572;13.378;2023-02-13T02:06:08;99.13;;;37.22;;
48487;SDS011;34289;48.572;13.378;2023-02-13T02:08:38;102.55;;;38.47;;
48487;SDS011;34289;48.572;13.378;2023-02-13T02:14:04;98.25;;;38.03;;
48487;SDS011;34289;48.572;13.378;2023-02-13T02:16:30;93.78;;;35.45;;
48487;SDS011;34289;48.572;13.378;2023-02-13T02:18:57;98.65;;;39.30;;
48487;SDS011;34289;48.572;13.378;2023-02-13T02:41:53;94.28;;;36.42;;
48487;SDS011;34289;48.572;13.378;2023-02-13T02:47:09;89.38;;;37.03;;
48487;SDS011;34289;48.572;13.378;2023-02-13T02:58:23;86.53;;;37.90;;
48487;SDS011;34289;48.572;13.378;2023-02-13T03:01:17;97.43;;;36.80;;
48487;SDS011;34289;48.572;13.378;2023-02-13T03:04:04;83.43;;;34.90;;
48487;SDS011;34289;48.572;13.378;2023-02-13T03:06:50;82.72;;;35.92;;
48487;SDS011;34289;48.572;13.378;2023-02-13T03:09:24;85.43;;;35.72;;
48487;SDS011;34289;48.572;13.378;2023-02-13T03:12:11;77.18;;;34.88;;
48487;SDS011;34289;48.572;13.378;2023-02-13T03:15:00;92.15;;;37.50;;
48487;SDS011;34289;48.572;13.378;2023-02-13T03:17:25;87.28;;;37.50;;
48487;SDS011;34289;48.572;13.378;2023-02-13T03:29:13;83.22;;;35.13;;
48487;SDS011;34289;48.572;13.378;2023-02-13T03:32:03;92.47;;;33.38;;
48487;SDS011;34289;48.572;13.378;2023-02-13T03:34:43;74.88;;;32.05;;
48487;SDS011;34289;48.572;13.378;2023-02-13T03:37:35;82.63;;;33.90;;
48487;SDS011;34289;48.572;13.378;2023-02-13T03:43:31;77.38;;;33.00;;
48487;SDS011;34289;48.572;13.378;2023-02-13T03:46:04;68.47;;;31.13;;
48487;SDS011;34289;48.572;13.378;2023-02-13T03:48:33;82.90;;;32.85;;
48487;SDS011;34289;48.572;13.378;2023-02-13T03:51:21;78.57;;;33.92;;
48487;SDS011;34289;48.572;13.378;2023-02-13T03:53:54;82.43;;;33.72;;
48487;SDS011;34289;48.572;13.378;2023-02-13T03:56:23;86.70;;;34.85;;
48487;SDS011;34289;48.572;13.378;2023-02-13T03:59:15;59.65;;;31.35;;
48487;SDS011;34289;48.572;13.378;2023-02-13T04:02:12;54.92;;;28.55;;
48487;SDS011;34289;48.572;13.378;2023-02-13T04:04:51;62.08;;;31.02;;
48487;SDS011;34289;48.572;13.378;2023-02-13T04:07:23;57.70;;;29.05;;
48487;SDS011;34289;48.572;13.378;2023-02-13T04:10:12;62.15;;;29.83;;
48487;SDS011;34289;48.572;13.378;2023-02-13T04:12:49;72.85;;;34.15;;
48487;SDS011;34289;48.572;13.378;2023-02-13T04:15:16;64.45;;;33.05;;
48487;SDS011;34289;48.572;13.378;2023-02-13T04:17:51;54.22;;;28.95;;
48487;SDS011;34289;48.572;13.378;2023-02-13T04:20:23;54.60;;;28.63;;
48487;SDS011;34289;48.572;13.378;2023-02-13T04:22:51;57.83;;;30.48;;
48487;SDS011;34289;48.572;13.378;2023-02-13T04:25:17;51.92;;;27.92;;
48487;SDS011;34289;48.572;13.378;2023-02-13T04:27:43;53.30;;;28.33;;
48487;SDS011;34289;48.572;13.378;2023-02-13T04:30:09;51.15;;;28.60;;
48487;SDS011;34289;48.572;13.378;2023-02-13T04:32:35;49.83;;;28.63;;
48487;SDS011;34289;48.572;13.378;2023-02-13T04:35:01;53.35;;;28.65;;
48487;SDS011;34289;48.572;13.378;2023-02-13T04:37:26;56.05;;;29.65;;
48487;SDS011;34289;48.572;13.378;2023-02-13T04:39:52;51.55;;;29.45;;
48487;SDS011;34289;48.572;13.378;2023-02-13T04:42:18;51.33;;;30.48;;
48487;SDS011;34289;48.572;13.378;2023-02-13T04:44:43;52.22;;;30.00;;
48487;SDS011;34289;48.572;13.378;2023-02-13T04:47:09;49.67;;;27.77;;
48487;SDS011;34289;48.572;13.378;2023-02-13T04:49:34;49.58;;;27.70;;
48487;SDS011;34289;48.572;13.378;2023-02-13T04:52:00;50.92;;;28.10;;
48487;SDS011;34289;48.572;13.378;2023-02-13T04:54:26;51.35;;;28.85;;
48487;SDS011;34289;48.572;13.378;2023-02-13T04:56:51;42.85;;;25.58;;
48487;SDS011;34289;48.572;13.378;2023-02-13T04:59:17;46.92;;;28.70;;
48487;SDS011;34289;48.572;13.378;2023-02-13T05:01:43;42.70;;;27.58;;
48487;SDS011;34289;48.572;13.378;2023-02-13T05:04:08;46.67;;;28.35;;
48487;SDS011;34289;48.572;13.378;2023-02-13T05:06:35;44.65;;;25.98;;
48487;SDS011;34289;48.572;13.378;2023-02-13T05:09:02;44.65;;;26.80;;
48487;SDS011;34289;48.572;13.378;2023-02-13T05:11:28;45.60;;;26.52;;
48487;SDS011;34289;48.572;13.378;2023-02-13T05:13:53;41.20;;;25.83;;
48487;SDS011;34289;48.572;13.378;2023-02-13T05:16:19;45.83;;;26.85;;
48487;SDS011;34289;48.572;13.378;2023-02-13T05:18:45;36.50;;;23.63;;
48487;SDS011;34289;48.572;13.378;2023-02-13T05:21:10;38.03;;;24.48;;
48487;SDS011;34289;48.572;13.378;2023-02-13T05:23:54;39.08;;;24.58;;
48487;SDS011;34289;48.572;13.378;2023-02-13T05:26:20;36.95;;;24.95;;
48487;SDS011;34289;48.572;13.378;2023-02-13T05:28:45;40.97;;;25.20;;
48487;SDS011;34289;48.572;13.378;2023-02-13T05:31:30;37.42;;;24.73;;
48487;SDS011;34289;48.572;13.378;2023-02-13T05:33:55;35.20;;;24.13;;
48487;SDS011;34289;48.572;13.378;2023-02-13T05:36:21;36.28;;;23.83;;
48487;SDS011;34289;48.572;13.378;2023-02-13T05:38:46;36.03;;;23.70;;
48487;SDS011;34289;48.572;13.378;2023-02-13T05:41:12;35.00;;;23.77;;
48487;SDS011;34289;48.572;13.378;2023-02-13T05:43:37;33.45;;;22.40;;
48487;SDS011;34289;48.572;13.378;2023-02-13T05:46:04;37.40;;;24.90;;
48487;SDS011;34289;48.572;13.378;2023-02-13T05:48:31;36.40;;;24.88;;
48487;SDS011;34289;48.572;13.378;2023-02-13T05:50:57;34.92;;;24.42;;
48487;SDS011;34289;48.572;13.378;2023-02-13T05:53:22;33.75;;;23.95;;
48487;SDS011;34289;48.572;13.378;2023-02-13T05:55:48;34.47;;;23.38;;
48487;SDS011;34289;48.572;13.378;2023-02-13T05:58:16;38.15;;;24.75;;
48487;SDS011;34289;48.572;13.378;2023-02-13T06:00:42;34.58;;;24.90;;
48487;SDS011;34289;48.572;13.378;2023-02-13T06:03:08;39.20;;;26.02;;
48487;SDS011;34289;48.572;13.378;2023-02-13T06:05:33;34.92;;;24.23;;
48487;SDS011;34289;48.572;13.378;2023-02-13T06:07:59;39.97;;;27.73;;
48487;SDS011;34289;48.572;13.378;2023-02-13T06:10:25;35.47;;;24.67;;
48487;SDS011;34289;48.572;13.378;2023-02-13T06:12:50;37.13;;;24.27;;
48487;SDS011;34289;48.572;13.378;2023-02-13T06:15:16;33.72;;;24.45;;
48487;SDS011;34289;48.572;13.378;2023-02-13T06:17:42;50.72;;;29.80;;
48487;SDS011;34289;48.572;13.378;2023-02-13T06:20:07;59.22;;;31.48;;
48487;SDS011;34289;48.572;13.378;2023-02-13T06:22:33;58.55;;;31.08;;
48487;SDS011;34289;48.572;13.378;2023-02-13T06:24:59;54.17;;;28.77;;
48487;SDS011;34289;48.572;13.378;2023-02-13T06:27:27;71.00;;;34.80;;
48487;SDS011;34289;48.572;13.378;2023-02-13T06:29:53;70.40;;;35.38;;
48487;SDS011;34289;48.572;13.378;2023-02-13T06:32:18;86.15;;;35.58;;
48487;SDS011;34289;48.572;13.378;2023-02-13T06:34:44;91.72;;;36.72;;
48487;SDS011;34289;48.572;13.378;2023-02-13T06:37:09;88.63;;;35.95;;
48487;SDS011;34289;48.572;13.378;2023-02-13T06:39:35;92.22;;;37.55;;
48487;SDS011;34289;48.572;13.378;2023-02-13T06:42:01;72.40;;;31.85;;
48487;SDS011;34289;48.572;13.378;2023-02-13T06:44:26;72.32;;;32.83;;
48487;SDS011;34289;48.572;13.378;2023-02-13T06:46:52;71.63;;;33.30;;
48487;SDS011;34289;48.572;13.378;2023-02-13T06:49:17;61.50;;;32.20;;
48487;SDS011;34289;48.572;13.378;2023-02-13T06:51:43;63.22;;;33.42;;
48487;SDS011;34289;48.572;13.378;2023-02-13T06:54:09;61.70;;;32.03;;
48487;SDS011;34289;48.572;13.378;2023-02-13T06:56:34;54.45;;;32.30;;
48487;SDS011;34289;48.572;13.378;2023-02-13T06:59:00;60.25;;;31.60;;
48487;SDS011;34289;48.572;13.378;2023-02-13T07:01:26;57.10;;;32.47;;
48487;SDS011;34289;48.572;13.378;2023-02-13T07:03:51;51.42;;;29.65;;
48487;SDS011;34289;48.572;13.378;2023-02-13T07:06:17;59.75;;;31.90;;
48487;SDS011;34289;48.572;13.378;2023-02-13T07:08:44;49.00;;;29.38;;
48487;SDS011;34289;48.572;13.378;2023-02-13T07:11:17;54.20;;;30.67;;
48487;SDS011;34289;48.572;13.378;2023-02-13T07:13:46;56.22;;;33.28;;
48487;SDS011;34289;48.572;13.378;2023-02-13T07:16:12;51.90;;;31.58;;
48487;SDS011;34289;48.572;13.378;2023-02-13T07:18:38;47.55;;;31.33;;
48487;SDS011;34289;48.572;13.378;2023-02-13T07:21:03;54.50;;;31.95;;
48487;SDS011;34289;48.572;13.378;2023-02-13T07:23:29;50.65;;;30.88;;
48487;SDS011;34289;48.572;13.378;2023-02-13T07:25:57;48.45;;;29.63;;
48487;SDS011;34289;48.572;13.378;2023-02-13T07:28:23;51.30;;;29.42;;
48487;SDS011;34289;48.572;13.378;2023-02-13T07:30:49;43.97;;;28.23;;
48487;SDS011;34289;48.572;13.378;2023-02-13T07:33:15;50.92;;;29.42;;
48487;SDS011;34289;48.572;13.378;2023-02-13T07:35:47;46.40;;;29.90;;
48487;SDS011;34289;48.572;13.378;2023-02-13T07:38:14;47.10;;;29.30;;
48487;SDS011;34289;48.572;13.378;2023-02-13T07:40:41;42.75;;;28.70;;
48487;SDS011;34289;48.572;13.378;2023-02-13T07:43:07;48.00;;;28.55;;
48487;SDS011;34289;48.572;13.378;2023-02-13T07:45:32;46.78;;;29.42;;
48487;SDS011;34289;48.572;13.378;2023-02-13T07:47:58;47.25;;;30.45;;
48487;SDS011;34289;48.572;13.378;2023-02-13T07:50:24;46.88;;;29.83;;
48487;SDS011;34289;48.572;13.378;2023-02-13T07:52:56;44.25;;;29.48;;
48487;SDS011;34289;48.572;13.378;2023-02-13T07:55:26;42.97;;;28.52;;
48487;SDS011;34289;48.572;13.378;2023-02-13T07:57:53;45.70;;;28.77;;
48487;SDS011;34289;48.572;13.378;2023-02-13T08:00:19;40.83;;;26.98;;
48487;SDS011;34289;48.572;13.378;2023-02-13T08:02:45;43.60;;;28.48;;
48487;SDS011;34289;48.572;13.378;2023-02-13T08:05:11;43.67;;;28.17;;
48487;SDS011;34289;48.572;13.378;2023-02-13T08:07:36;45.25;;;28.45;;
48487;SDS011;34289;48.572;13.378;2023-02-13T08:10:02;44.90;;;29.25;;
48487;SDS011;34289;48.572;13.378;2023-02-13T08:12:50;40.67;;;26.42;;
48487;SDS011;34289;48.572;13.378;2023-02-13T08:15:16;41.75;;;27.27;;
48487;SDS011;34289;48.572;13.378;2023-02-13T08:17:42;42.97;;;28.25;;
48487;SDS011;34289;48.572;13.378;2023-02-13T08:20:08;43.78;;;27.08;;
48487;SDS011;34289;48.572;13.378;2023-02-13T08:22:37;44.47;;;28.13;;
48487;SDS011;34289;48.572;13.378;2023-02-13T08:25:03;47.42;;;31.50;;
48487;SDS011;34289;48.572;13.378;2023-02-13T08:27:30;49.08;;;29.30;;
48487;SDS011;34289;48.572;13.378;2023-02-13T08:29:56;46.75;;;30.35;;
48487;SDS011;34289;48.572;13.378;2023-02-13T08:32:23;49.08;;;29.67;;
48487;SDS011;34289;48.572;13.378;2023-02-13T08:34:49;41.72;;;27.23;;
48487;SDS011;34289;48.572;13.378;2023-02-13T08:37:15;44.75;;;28.63;;
48487;SDS011;34289;48.572;13.378;2023-02-13T08:39:41;43.85;;;27.25;;
48487;SDS011;34289;48.572;13.378;2023-02-13T08:42:07;46.80;;;29.05;;
48487;SDS011;34289;48.572;13.378;2023-02-13T08:44:32;45.67;;;28.67;;
48487;SDS011;34289;48.572;13.378;2023-02-13T08:46:58;43.78;;;28.52;;
48487;SDS011;34289;48.572;13.378;2023-02-13T08:49:27;42.72;;;28.30;;
48487;SDS011;34289;48.572;13.378;2023-02-13T08:51:56;43.00;;;27.73;;
48487;SDS011;34289;48.572;13.378;2023-02-13T08:54:21;47.28;;;28.73;;
48487;SDS011;34289;48.572;13.378;2023-02-13T08:56:47;47.47;;;29.40;;
48487;SDS011;34289;48.572;13.378;2023-02-13T08:59:13;49.63;;;29.13;;
48487;SDS011;34289;48.572;13.378;2023-02-13T09:01:38;48.00;;;30.17;;
48487;SDS011;34289;48.572;13.378;2023-02-13T09:04:04;47.10;;;31.15;;
48487;SDS011;34289;48.572;13.378;2023-02-13T09:06:30;56.00;;;33.08;;
48487;SDS011;34289;48.572;13.378;2023-02-13T09:08:55;52.63;;;31.50;;
48487;SDS011;34289;48.572;13.378;2023-02-13T09:11:21;52.13;;;32.95;;
48487;SDS011;34289;48.572;13.378;2023-02-13T09:13:47;49.97;;;31.98;;
48487;SDS011;34289;48.572;13.378;2023-02-13T09:16:14;49.33;;;31.50;;
48487;SDS011;34289;48.572;13.378;2023-02-13T09:18:40;50.17;;;31.33;;
48487;SDS011;34289;48.572;13.378;2023-02-13T09:21:07;48.03;;;30.10;;
48487;SDS011;34289;48.572;13.378;2023-02-13T09:23:36;36.20;;;23.17;;
48487;SDS011;34289;48.572;13.378;2023-02-13T09:26:04;42.45;;;25.67;;
48487;SDS011;34289;48.572;13.378;2023-02-13T09:28:32;40.97;;;24.88;;
48487;SDS011;34289;48.572;13.378;2023-02-13T09:30:58;50.00;;;31.23;;
48487;SDS011;34289;48.572;13.378;2023-02-13T09:33:24;47.30;;;30.60;;
48487;SDS011;34289;48.572;13.378;2023-02-13T09:35:50;54.75;;;33.42;;
48487;SDS011;34289;48.572;13.378;2023-02-13T09:38:16;56.20;;;32.45;;
48487;SDS011;34289;48.572;13.378;2023-02-13T09:40:46;49.17;;;31.65;;
48487;SDS011;34289;48.572;13.378;2023-02-13T09:43:16;46.97;;;27.50;;
48487;SDS011;34289;48.572;13.378;2023-02-13T09:45:49;54.28;;;31.42;;
48487;SDS011;34289;48.572;13.378;2023-02-13T09:48:21;56.05;;;32.20;;
48487;SDS011;34289;48.572;13.378;2023-02-13T09:50:53;42.03;;;24.67;;
48487;SDS011;34289;48.572;13.378;2023-02-13T09:53:21;54.63;;;32.97;;
48487;SDS011;34289;48.572;13.378;2023-02-13T09:56:09;47.63;;;28.88;;
48487;SDS011;34289;48.572;13.378;2023-02-13T09:58:45;53.28;;;31.55;;
48487;SDS011;34289;48.572;13.378;2023-02-13T10:01:17;49.55;;;29.33;;
48487;SDS011;34289;48.572;13.378;2023-02-13T10:03:50;48.80;;;29.63;;
48487;SDS011;34289;48.572;13.378;2023-02-13T10:06:39;51.88;;;27.92;;
48487;SDS011;34289;48.572;13.378;2023-02-13T10:09:20;48.28;;;28.60;;
48487;SDS011;34289;48.572;13.378;2023-02-13T10:12:00;48.80;;;29.33;;
48487;SDS011;34289;48.572;13.378;2023-02-13T10:14:41;52.60;;;32.17;;
48487;SDS011;34289;48.572;13.378;2023-02-13T10:17:18;48.17;;;31.65;;
48487;SDS011;34289;48.572;13.378;2023-02-13T10:20:05;47.30;;;29.88;;
48487;SDS011;34289;48.572;13.378;2023-02-13T10:22:55;43.65;;;27.67;;
48487;SDS011;34289;48.572;13.378;2023-02-13T10:25:27;45.70;;;30.85;;
48487;SDS011;34289;48.572;13.378;2023-02-13T10:28:01;47.38;;;30.73;;
48487;SDS011;34289;48.572;13.378;2023-02-13T10:30:32;41.95;;;26.55;;
48487;SDS011;34289;48.572;13.378;2023-02-13T10:35:47;40.75;;;25.80;;
48487;SDS011;34289;48.572;13.378;2023-02-13T10:38:18;39.65;;;25.42;;
48487;SDS011;34289;48.572;13.378;2023-02-13T10:52:36;45.90;;;28.92;;
48487;SDS011;34289;48.572;13.378;2023-02-13T10:55:30;42.88;;;27.45;;
48487;SDS011;34289;48.572;13.378;2023-02-13T11:04:04;43.38;;;28.58;;
48487;SDS011;34289;48.572;13.378;2023-02-13T11:06:42;44.72;;;27.33;;
48487;SDS011;34289;48.572;13.378;2023-02-13T11:09:33;45.50;;;27.88;;
48487;SDS011;34289;48.572;13.378;2023-02-13T11:12:21;45.53;;;28.05;;
48487;SDS011;34289;48.572;13.378;2023-02-13T11:14:53;40.53;;;27.00;;
48487;SDS011;34289;48.572;13.378;2023-02-13T11:17:24;39.92;;;26.42;;
48487;SDS011;34289;48.572;13.378;2023-02-13T11:19:54;44.65;;;26.95;;
48487;SDS011;34289;48.572;13.378;2023-02-13T11:22:31;39.67;;;26.90;;
48487;SDS011;34289;48.572;13.378;2023-02-13T11:25:06;39.80;;;26.42;;
48487;SDS011;34289;48.572;13.378;2023-02-13T11:27:41;40.53;;;27.17;;
48487;SDS011;34289;48.572;13.378;2023-02-13T11:33:03;40.00;;;27.58;;
48487;SDS011;34289;48.572;13.378;2023-02-13T11:35:31;39.72;;;25.45;;
48487;SDS011;34289;48.572;13.378;2023-02-13T11:40:42;38.20;;;26.10;;
48487;SDS011;34289;48.572;13.378;2023-02-13T11:45:58;39.03;;;26.48;;
48487;SDS011;34289;48.572;13.378;2023-02-13T11:48:29;39.13;;;26.03;;
48487;SDS011;34289;48.572;13.378;2023-02-13T11:50:55;43.17;;;28.60;;
48487;SDS011;34289;48.572;13.378;2023-02-13T11:53:22;37.30;;;26.33;;
48487;SDS011;34289;48.572;13.378;2023-02-13T11:56:01;35.35;;;25.60;;
48487;SDS011;34289;48.572;13.378;2023-02-13T11:58:27;38.65;;;27.38;;
48487;SDS011;34289;48.572;13.378;2023-02-13T12:01:22;41.83;;;27.77;;
48487;SDS011;34289;48.572;13.378;2023-02-13T12:03:43;43.90;;;27.38;;
48487;SDS011;34289;48.572;13.378;2023-02-13T12:06:20;38.00;;;25.73;;
48487;SDS011;34289;48.572;13.378;2023-02-13T12:08:46;39.28;;;27.88;;
48487;SDS011;34289;48.572;13.378;2023-02-13T12:11:16;43.70;;;28.02;;
48487;SDS011;34289;48.572;13.378;2023-02-13T12:14:03;45.35;;;29.50;;
48487;SDS011;34289;48.572;13.378;2023-02-13T12:16:31;48.70;;;30.92;;
48487;SDS011;34289;48.572;13.378;2023-02-13T12:19:03;63.92;;;37.20;;
48487;SDS011;34289;48.572;13.378;2023-02-13T12:27:17;46.58;;;29.17;;
48487;SDS011;34289;48.572;13.378;2023-02-13T12:30:02;44.03;;;29.65;;
48487;SDS011;34289;48.572;13.378;2023-02-13T12:46:21;45.28;;;28.17;;
48487;SDS011;34289;48.572;13.378;2023-02-13T12:54:22;43.42;;;29.13;;
48487;SDS011;34289;48.572;13.378;2023-02-13T13:05:26;49.80;;;31.20;;
48487;SDS011;34289;48.572;13.378;2023-02-13T13:13:40;43.63;;;28.25;;
48487;SDS011;34289;48.572;13.378;2023-02-13T13:27:19;40.38;;;27.45;;
48487;SDS011;34289;48.572;13.378;2023-02-13T13:29:55;41.17;;;27.13;;
48487;SDS011;34289;48.572;13.378;2023-02-13T13:32:23;39.45;;;27.08;;
48487;SDS011;34289;48.572;13.378;2023-02-13T13:34:52;42.92;;;26.75;;
48487;SDS011;34289;48.572;13.378;2023-02-13T13:42:39;41.60;;;27.45;;
48487;SDS011;34289;48.572;13.378;2023-02-13T13:45:44;41.85;;;27.38;;
48487;SDS011;34289;48.572;13.378;2023-02-13T13:51:05;46.45;;;28.13;;
48487;SDS011;34289;48.572;13.378;2023-02-13T13:53:32;38.53;;;26.77;;
48487;SDS011;34289;48.572;13.378;2023-02-13T13:55:58;38.47;;;26.15;;
48487;SDS011;34289;48.572;13.378;2023-02-13T13:58:44;38.33;;;25.85;;
48487;SDS011;34289;48.572;13.378;2023-02-13T14:03:40;38.38;;;26.63;;
48487;SDS011;34289;48.572;13.378;2023-02-13T14:06:10;44.47;;;26.98;;
48487;SDS011;34289;48.572;13.378;2023-02-13T14:13:50;45.17;;;28.65;;
48487;SDS011;34289;48.572;13.378;2023-02-13T14:19:02;47.97;;;29.63;;
48487;SDS011;34289;48.572;13.378;2023-02-13T14:21:28;45.42;;;28.40;;
48487;SDS011;34289;48.572;13.378;2023-02-13T14:23:54;46.60;;;30.25;;
48487;SDS011;34289;48.572;13.378;2023-02-13T14:26:29;43.28;;;29.52;;
48487;SDS011;34289;48.572;13.378;2023-02-13T14:28:58;49.95;;;31.65;;
48487;SDS011;34289;48.572;13.378;2023-02-13T14:34:55;47.08;;;30.08;;
48487;SDS011;34289;48.572;13.378;2023-02-13T14:42:42;44.22;;;26.73;;
48487;SDS011;34289;48.572;13.378;2023-02-13T14:45:18;44.63;;;29.25;;
48487;SDS011;34289;48.572;13.378;2023-02-13T14:47:47;45.42;;;27.92;;
48487;SDS011;34289;48.572;13.378;2023-02-13T14:50:27;45.70;;;30.08;;
48487;SDS011;34289;48.572;13.378;2023-02-13T14:52:59;46.47;;;29.10;;
48487;SDS011;34289;48.572;13.378;2023-02-13T14:55:42;49.15;;;29.08;;
48487;SDS011;34289;48.572;13.378;2023-02-13T14:58:12;48.95;;;31.73;;
48487;SDS011;34289;48.572;13.378;2023-02-13T15:00:53;42.72;;;28.27;;
48487;SDS011;34289;48.572;13.378;2023-02-13T15:07:03;47.22;;;29.05;;
48487;SDS011;34289;48.572;13.378;2023-02-13T15:09:30;45.85;;;27.67;;
48487;SDS011;34289;48.572;13.378;2023-02-13T15:12:37;41.72;;;27.15;;
48487;SDS011;34289;48.572;13.378;2023-02-13T15:14:56;41.38;;;27.23;;
48487;SDS011;34289;48.572;13.378;2023-02-13T15:17:29;43.03;;;28.30;;
48487;SDS011;34289;48.572;13.378;2023-02-13T15:20:23;41.15;;;27.73;;
48487;SDS011;34289;48.572;13.378;2023-02-13T15:22:50;45.63;;;28.67;;
48487;SDS011;34289;48.572;13.378;2023-02-13T15:25:24;45.63;;;29.30;;
48487;SDS011;34289;48.572;13.378;2023-02-13T15:27:55;44.35;;;28.08;;
48487;SDS011;34289;48.572;13.378;2023-02-13T15:30:27;41.50;;;28.08;;
48487;SDS011;34289;48.572;13.378;2023-02-13T15:32:58;45.03;;;28.08;;
48487;SDS011;34289;48.572;13.378;2023-02-13T15:35:44;39.15;;;26.08;;
48487;SDS011;34289;48.572;13.378;2023-02-13T15:38:23;44.17;;;28.42;;
48487;SDS011;34289;48.572;13.378;2023-02-13T15:41:10;48.08;;;30.83;;
48487;SDS011;34289;48.572;13.378;2023-02-13T15:43:42;41.75;;;28.40;;
48487;SDS011;34289;48.572;13.378;2023-02-13T15:46:17;46.35;;;29.45;;
48487;SDS011;34289;48.572;13.378;2023-02-13T15:48:45;45.90;;;29.92;;
48487;SDS011;34289;48.572;13.378;2023-02-13T15:51:25;46.13;;;29.60;;
48487;SDS011;34289;48.572;13.378;2023-02-13T15:54:03;47.42;;;30.80;;
48487;SDS011;34289;48.572;13.378;2023-02-13T15:56:45;56.75;;;31.52;;
48487;SDS011;34289;48.572;13.378;2023-02-13T15:59:12;49.40;;;31.95;;
48487;SDS011;34289;48.572;13.378;2023-02-13T16:01:39;56.63;;;32.30;;
48487;SDS011;34289;48.572;13.378;2023-02-13T16:04:11;50.28;;;32.35;;
48487;SDS011;34289;48.572;13.378;2023-02-13T16:06:39;52.70;;;31.83;;
48487;SDS011;34289;48.572;13.378;2023-02-13T16:09:22;46.28;;;29.02;;
48487;SDS011;34289;48.572;13.378;2023-02-13T16:11:56;50.10;;;29.75;;
48487;SDS011;34289;48.572;13.378;2023-02-13T16:14:31;41.63;;;27.55;;
48487;SDS011;34289;48.572;13.378;2023-02-13T16:17:11;46.95;;;30.45;;
48487;SDS011;34289;48.572;13.378;2023-02-13T16:19:50;51.15;;;30.83;;
48487;SDS011;34289;48.572;13.378;2023-02-13T16:25:13;48.78;;;29.60;;
48487;SDS011;34289;48.572;13.378;2023-02-13T16:27:43;49.78;;;29.20;;
48487;SDS011;34289;48.572;13.378;2023-02-13T16:35:34;46.25;;;29.55;;
48487;SDS011;34289;48.572;13.378;2023-02-13T16:38:02;47.67;;;28.15;;
48487;SDS011;34289;48.572;13.378;2023-02-13T16:41:03;46.13;;;28.33;;
48487;SDS011;34289;48.572;13.378;2023-02-13T16:46:49;45.38;;;28.70;;
48487;SDS011;34289;48.572;13.378;2023-02-13T16:49:30;43.50;;;27.47;;
48487;SDS011;34289;48.572;13.378;2023-02-13T17:07:38;36.60;;;23.38;;
48487;SDS011;34289;48.572;13.378;2023-02-13T17:10:05;37.30;;;24.10;;
48487;SDS011;34289;48.572;13.378;2023-02-13T17:12:41;37.03;;;25.33;;
48487;SDS011;34289;48.572;13.378;2023-02-13T17:15:09;36.00;;;22.55;;
48487;SDS011;34289;48.572;13.378;2023-02-13T17:17:37;31.58;;;22.10;;
48487;SDS011;34289;48.572;13.378;2023-02-13T17:20:03;47.72;;;31.58;;
48487;SDS011;34289;48.572;13.378;2023-02-13T17:22:37;43.45;;;26.60;;
48487;SDS011;34289;48.572;13.378;2023-02-13T17:25:07;38.60;;;22.98;;
48487;SDS011;34289;48.572;13.378;2023-02-13T17:27:35;35.22;;;23.48;;
48487;SDS011;34289;48.572;13.378;2023-02-13T17:30:01;33.05;;;20.92;;
48487;SDS011;34289;48.572;13.378;2023-02-13T17:32:27;30.48;;;20.98;;
48487;SDS011;34289;48.572;13.378;2023-02-13T17:34:53;34.33;;;23.05;;